createdAt,value
2023-04-02T00:07:23.961Z,962.66
2023-04-02T00:17:24.289Z,962.63
2023-04-02T00:27:24.305Z,962.68
2023-04-02T00:37:24.516Z,962.58
2023-04-02T00:47:24.643Z,962.70
2023-04-02T00:57:25.001Z,962.83
2023-04-02T01:07:24.863Z,962.87
2023-04-02T01:17:25.125Z,962.84
2023-04-02T01:27:25.313Z,962.95
2023-04-02T01:37:25.387Z,962.95
2023-04-02T01:47:25.737Z,963.02
2023-04-02T01:57:25.792Z,963.11
2023-04-02T02:07:25.894Z,963.11
2023-04-02T02:17:26.092Z,963.18
2023-04-02T02:27:26.634Z,963.23
2023-04-02T02:37:26.476Z,963.26
2023-04-02T02:47:26.820Z,963.34
2023-04-02T02:57:27.080Z,963.42
2023-04-02T03:07:27.053Z,963.54
2023-04-02T03:17:27.352Z,963.67
2023-04-02T03:27:27.499Z,963.85
2023-04-02T03:37:27.576Z,963.97
2023-04-02T03:47:27.895Z,963.91
2023-04-02T03:57:28.027Z,964.02
2023-04-02T04:07:28.416Z,964.08
2023-04-02T04:17:28.317Z,964.15
2023-04-02T04:27:28.429Z,964.27
2023-04-02T04:37:28.617Z,964.40
2023-04-02T04:47:28.895Z,964.62
2023-04-02T04:57:29.040Z,964.66
2023-04-02T05:07:29.150Z,964.68
2023-04-02T05:17:29.247Z,964.72
2023-04-02T05:27:29.473Z,964.94
2023-04-02T05:37:29.686Z,965.01
2023-04-02T05:47:29.932Z,965.10
2023-04-02T05:57:42.760Z,965.24
2023-04-02T06:07:31.232Z,965.33
2023-04-02T06:17:30.492Z,965.42
2023-04-02T06:27:30.632Z,965.45
2023-04-02T06:37:30.824Z,965.68
2023-04-02T06:47:31.127Z,965.88
2023-04-02T06:57:31.307Z,965.94
2023-04-02T07:07:31.436Z,966.16
2023-04-02T07:17:32.675Z,966.35
2023-04-02T07:27:31.891Z,966.40
2023-04-02T07:37:31.972Z,966.43
2023-04-02T07:47:32.273Z,966.51
2023-04-02T07:57:32.429Z,966.64
2023-04-02T08:07:32.513Z,966.74
2023-04-02T08:17:32.916Z,966.83
2023-04-02T08:27:32.887Z,967.03
2023-04-02T08:37:33.138Z,967.15
2023-04-02T08:47:33.254Z,967.22
2023-04-02T08:57:33.721Z,967.33
2023-04-02T09:07:33.711Z,967.47
2023-04-02T09:17:42.703Z,967.57
2023-04-02T09:27:35.175Z,967.67
2023-04-02T09:37:34.103Z,967.84
2023-04-02T09:47:34.520Z,967.90
2023-04-02T09:57:34.792Z,968.09
2023-04-02T10:07:35.160Z,968.30
2023-04-02T10:17:34.810Z,968.25
2023-04-02T10:27:34.908Z,968.33
2023-04-02T10:37:35.098Z,968.43
2023-04-02T10:47:35.345Z,968.38
2023-04-02T10:57:35.514Z,968.48
2023-04-02T11:07:35.597Z,968.60
2023-04-02T11:17:36.268Z,968.65
2023-04-02T11:27:35.782Z,968.67
2023-04-02T11:37:35.976Z,968.78
2023-04-02T11:47:36.356Z,968.93
2023-04-02T11:57:36.462Z,968.97
2023-04-02T12:07:36.594Z,968.98
2023-04-02T12:17:37.224Z,968.98
2023-04-02T12:27:37.102Z,969.15
2023-04-02T12:37:37.064Z,969.30
2023-04-02T12:47:37.189Z,969.39
2023-04-02T12:57:37.367Z,969.46
2023-04-02T13:07:37.440Z,969.51
2023-04-02T13:17:37.632Z,969.52
2023-04-02T13:27:37.853Z,969.52
2023-04-02T13:37:38.169Z,969.65
2023-04-02T13:47:40.586Z,969.66
2023-04-02T13:57:38.463Z,969.72
2023-04-02T14:07:38.574Z,969.77
2023-04-02T14:17:38.670Z,970.05
2023-04-02T14:27:40.210Z,970.17
2023-04-02T14:37:39.312Z,970.32
2023-04-02T14:47:39.266Z,970.37
2023-04-02T14:57:39.337Z,970.41
2023-04-02T15:07:39.611Z,970.49
2023-04-02T15:17:39.922Z,970.61
2023-04-02T15:27:39.884Z,970.75
2023-04-02T15:37:40.081Z,970.95
2023-04-02T15:47:40.433Z,970.98
2023-04-02T15:57:40.530Z,971.07
2023-04-02T16:07:40.675Z,971.18
2023-04-02T16:17:40.864Z,971.46
2023-04-02T16:27:40.973Z,971.59
2023-04-02T16:37:41.175Z,971.70
2023-04-02T16:47:41.452Z,971.89
2023-04-02T16:57:41.552Z,972.08
2023-04-02T17:07:41.774Z,972.16
2023-04-02T17:17:41.985Z,972.32
2023-04-02T17:27:42.199Z,972.41
2023-04-02T17:37:42.262Z,972.66
2023-04-02T17:47:42.668Z,972.95
2023-04-02T17:57:42.636Z,973.21
2023-04-02T18:07:42.876Z,973.26
2023-04-02T18:17:43.164Z,973.54
2023-04-02T18:27:43.237Z,973.66
2023-04-02T18:37:43.401Z,973.94
2023-04-02T18:47:43.655Z,974.21
2023-04-02T18:57:43.748Z,974.36
2023-04-02T19:07:43.990Z,974.55
2023-04-02T19:17:44.218Z,974.72
2023-04-02T19:27:44.343Z,974.92
2023-04-02T19:37:44.616Z,975.15
2023-04-02T19:47:44.989Z,975.36
2023-04-02T19:57:44.913Z,975.49
2023-04-02T20:07:45.155Z,975.61
2023-04-02T20:17:45.360Z,975.66
2023-04-02T20:27:45.527Z,975.83
2023-04-02T20:37:45.675Z,975.96
2023-04-02T20:47:45.942Z,976.10
2023-04-02T20:57:46.033Z,976.18
2023-04-02T21:07:46.298Z,976.36
2023-04-02T21:17:46.545Z,976.33
2023-04-02T21:27:46.669Z,976.52
2023-04-02T21:37:47.146Z,976.61
2023-04-02T21:47:47.114Z,976.68
2023-04-02T21:57:47.219Z,976.64
2023-04-02T22:07:47.465Z,976.75
2023-04-02T22:17:47.681Z,976.85
2023-04-02T22:27:47.792Z,976.92
2023-04-02T22:37:48.002Z,976.99
2023-04-02T22:47:48.274Z,977.10
2023-04-02T22:57:48.347Z,977.14
2023-04-02T23:07:48.588Z,977.10
2023-04-02T23:17:49.080Z,977.25
2023-04-02T23:27:48.973Z,977.26
2023-04-02T23:37:49.182Z,977.16
2023-04-02T23:47:49.419Z,977.12
2023-04-02T23:57:49.592Z,977.03
